sensor_id;sensor_type;location;lat;lon;timestamp;P1;durP1;ratioP1;P2;durP2;ratioP2
7707;SDS011;3896;48.758;8.888;2023-09-18T00:01:47;2.00;;;1.83;;
7707;SDS011;3896;48.758;8.888;2023-09-18T00:04:13;2.10;;;1.90;;
7707;SDS011;3896;48.758;8.888;2023-09-18T00:06:38;3.27;;;2.03;;
7707;SDS011;3896;48.758;8.888;2023-09-18T00:09:04;3.40;;;1.90;;
7707;SDS011;3896;48.758;8.888;2023-09-18T00:11:32;3.20;;;2.17;;
7707;SDS011;3896;48.758;8.888;2023-09-18T00:13:57;2.30;;;2.00;;
7707;SDS011;3896;48.758;8.888;2023-09-18T00:16:23;2.27;;;2.07;;
7707;SDS011;3896;48.758;8.888;2023-09-18T00:18:50;2.17;;;1.70;;
7707;SDS011;3896;48.758;8.888;2023-09-18T00:21:15;2.33;;;2.00;;
7707;SDS011;3896;48.758;8.888;2023-09-18T00:23:41;2.17;;;1.93;;
7707;SDS011;3896;48.758;8.888;2023-09-18T00:26:07;2.63;;;2.00;;
7707;SDS011;3896;48.758;8.888;2023-09-18T00:28:32;2.67;;;1.87;;
7707;SDS011;3896;48.758;8.888;2023-09-18T00:30:58;1.97;;;1.70;;
7707;SDS011;3896;48.758;8.888;2023-09-18T00:33:23;2.27;;;2.07;;
7707;SDS011;3896;48.758;8.888;2023-09-18T00:35:49;4.20;;;2.17;;
7707;SDS011;3896;48.758;8.888;2023-09-18T00:38:16;3.53;;;2.17;;
7707;SDS011;3896;48.758;8.888;2023-09-18T00:40:42;3.33;;;1.90;;
7707;SDS011;3896;48.758;8.888;2023-09-18T00:43:08;2.13;;;2.03;;
7707;SDS011;3896;48.758;8.888;2023-09-18T00:45:35;2.73;;;2.37;;
7707;SDS011;3896;48.758;8.888;2023-09-18T00:48:05;3.17;;;2.20;;
7707;SDS011;3896;48.758;8.888;2023-09-18T00:50:31;2.73;;;2.53;;
7707;SDS011;3896;48.758;8.888;2023-09-18T00:52:57;2.10;;;1.90;;
7707;SDS011;3896;48.758;8.888;2023-09-18T00:55:24;2.43;;;2.23;;
7707;SDS011;3896;48.758;8.888;2023-09-18T00:57:49;3.93;;;2.40;;
7707;SDS011;3896;48.758;8.888;2023-09-18T01:00:15;2.90;;;2.60;;
7707;SDS011;3896;48.758;8.888;2023-09-18T01:02:41;2.40;;;2.20;;
7707;SDS011;3896;48.758;8.888;2023-09-18T01:05:08;3.53;;;2.17;;
7707;SDS011;3896;48.758;8.888;2023-09-18T01:07:33;4.40;;;2.30;;
7707;SDS011;3896;48.758;8.888;2023-09-18T01:09:59;2.93;;;2.40;;
7707;SDS011;3896;48.758;8.888;2023-09-18T01:12:30;2.90;;;2.50;;
7707;SDS011;3896;48.758;8.888;2023-09-18T01:15:08;2.20;;;2.00;;
7707;SDS011;3896;48.758;8.888;2023-09-18T01:17:39;2.60;;;2.27;;
7707;SDS011;3896;48.758;8.888;2023-09-18T01:20:10;4.77;;;2.00;;
7707;SDS011;3896;48.758;8.888;2023-09-18T01:22:36;2.83;;;2.53;;
7707;SDS011;3896;48.758;8.888;2023-09-18T01:25:02;4.13;;;1.80;;
7707;SDS011;3896;48.758;8.888;2023-09-18T01:27:27;3.33;;;2.30;;
7707;SDS011;3896;48.758;8.888;2023-09-18T01:29:53;5.67;;;2.47;;
7707;SDS011;3896;48.758;8.888;2023-09-18T01:32:19;2.87;;;2.67;;
7707;SDS011;3896;48.758;8.888;2023-09-18T01:34:50;2.20;;;2.00;;
7707;SDS011;3896;48.758;8.888;2023-09-18T01:37:19;6.57;;;2.50;;
7707;SDS011;3896;48.758;8.888;2023-09-18T01:39:48;2.23;;;2.03;;
7707;SDS011;3896;48.758;8.888;2023-09-18T01:42:15;2.70;;;2.30;;
7707;SDS011;3896;48.758;8.888;2023-09-18T01:44:41;5.40;;;2.20;;
7707;SDS011;3896;48.758;8.888;2023-09-18T01:47:07;3.30;;;2.20;;
7707;SDS011;3896;48.758;8.888;2023-09-18T01:49:36;3.30;;;2.10;;
7707;SDS011;3896;48.758;8.888;2023-09-18T01:52:03;3.97;;;2.43;;
7707;SDS011;3896;48.758;8.888;2023-09-18T01:54:29;4.30;;;2.50;;
7707;SDS011;3896;48.758;8.888;2023-09-18T01:56:56;5.30;;;2.53;;
7707;SDS011;3896;48.758;8.888;2023-09-18T01:59:21;4.30;;;2.33;;
7707;SDS011;3896;48.758;8.888;2023-09-18T02:01:48;5.03;;;1.83;;
7707;SDS011;3896;48.758;8.888;2023-09-18T02:04:14;3.27;;;1.70;;
7707;SDS011;3896;48.758;8.888;2023-09-18T02:06:40;3.20;;;2.03;;
7707;SDS011;3896;48.758;8.888;2023-09-18T02:09:06;5.07;;;2.40;;
7707;SDS011;3896;48.758;8.888;2023-09-18T02:27:52;5.50;;;2.43;;
7707;SDS011;3896;48.758;8.888;2023-09-18T02:30:19;4.03;;;2.13;;
7707;SDS011;3896;48.758;8.888;2023-09-18T02:32:44;4.23;;;2.90;;
7707;SDS011;3896;48.758;8.888;2023-09-18T02:35:10;3.80;;;2.17;;
7707;SDS011;3896;48.758;8.888;2023-09-18T02:37:36;2.20;;;2.00;;
7707;SDS011;3896;48.758;8.888;2023-09-18T02:40:01;2.53;;;1.97;;
7707;SDS011;3896;48.758;8.888;2023-09-18T02:42:27;3.80;;;2.53;;
7707;SDS011;3896;48.758;8.888;2023-09-18T02:44:53;3.63;;;2.20;;
7707;SDS011;3896;48.758;8.888;2023-09-18T02:47:19;4.83;;;2.20;;
7707;SDS011;3896;48.758;8.888;2023-09-18T02:49:44;6.73;;;2.20;;
7707;SDS011;3896;48.758;8.888;2023-09-18T02:52:10;7.17;;;3.80;;
7707;SDS011;3896;48.758;8.888;2023-09-18T02:54:35;6.90;;;2.73;;
7707;SDS011;3896;48.758;8.888;2023-09-18T02:57:01;4.73;;;2.33;;
7707;SDS011;3896;48.758;8.888;2023-09-18T02:59:26;3.97;;;2.00;;
7707;SDS011;3896;48.758;8.888;2023-09-18T03:01:52;3.17;;;1.80;;
7707;SDS011;3896;48.758;8.888;2023-09-18T03:04:17;5.13;;;2.07;;
7707;SDS011;3896;48.758;8.888;2023-09-18T03:06:43;4.37;;;1.80;;
7707;SDS011;3896;48.758;8.888;2023-09-18T03:09:09;4.50;;;2.57;;
7707;SDS011;3896;48.758;8.888;2023-09-18T03:11:34;4.27;;;1.77;;
7707;SDS011;3896;48.758;8.888;2023-09-18T03:14:00;4.23;;;2.20;;
7707;SDS011;3896;48.758;8.888;2023-09-18T03:16:25;3.70;;;2.10;;
7707;SDS011;3896;48.758;8.888;2023-09-18T03:18:51;5.03;;;2.27;;
7707;SDS011;3896;48.758;8.888;2023-09-18T03:21:16;4.00;;;2.17;;
7707;SDS011;3896;48.758;8.888;2023-09-18T03:23:42;5.77;;;2.73;;
7707;SDS011;3896;48.758;8.888;2023-09-18T03:26:08;2.83;;;1.83;;
7707;SDS011;3896;48.758;8.888;2023-09-18T03:28:33;2.60;;;1.67;;
7707;SDS011;3896;48.758;8.888;2023-09-18T03:30:59;2.57;;;2.33;;
7707;SDS011;3896;48.758;8.888;2023-09-18T03:33:24;5.33;;;2.30;;
7707;SDS011;3896;48.758;8.888;2023-09-18T03:35:51;4.00;;;1.77;;
7707;SDS011;3896;48.758;8.888;2023-09-18T03:38:19;4.00;;;2.10;;
7707;SDS011;3896;48.758;8.888;2023-09-18T03:40:45;2.63;;;1.73;;
7707;SDS011;3896;48.758;8.888;2023-09-18T03:43:11;2.50;;;1.97;;
7707;SDS011;3896;48.758;8.888;2023-09-18T03:45:37;3.77;;;2.03;;
7707;SDS011;3896;48.758;8.888;2023-09-18T03:48:04;4.43;;;1.90;;
7707;SDS011;3896;48.758;8.888;2023-09-18T03:50:29;4.00;;;1.93;;
7707;SDS011;3896;48.758;8.888;2023-09-18T03:52:55;3.67;;;2.03;;
7707;SDS011;3896;48.758;8.888;2023-09-18T03:55:20;3.47;;;2.50;;
7707;SDS011;3896;48.758;8.888;2023-09-18T03:57:46;4.43;;;2.47;;
7707;SDS011;3896;48.758;8.888;2023-09-18T04:00:13;2.87;;;1.80;;
7707;SDS011;3896;48.758;8.888;2023-09-18T04:02:39;3.93;;;2.00;;
7707;SDS011;3896;48.758;8.888;2023-09-18T04:05:05;3.10;;;1.87;;
7707;SDS011;3896;48.758;8.888;2023-09-18T04:07:32;4.40;;;1.77;;
7707;SDS011;3896;48.758;8.888;2023-09-18T04:09:57;3.43;;;2.70;;
7707;SDS011;3896;48.758;8.888;2023-09-18T04:12:23;7.30;;;2.60;;
7707;SDS011;3896;48.758;8.888;2023-09-18T04:14:49;4.47;;;2.40;;
7707;SDS011;3896;48.758;8.888;2023-09-18T04:17:14;4.97;;;2.43;;
7707;SDS011;3896;48.758;8.888;2023-09-18T04:19:40;5.17;;;2.83;;
7707;SDS011;3896;48.758;8.888;2023-09-18T04:22:06;7.77;;;2.67;;
7707;SDS011;3896;48.758;8.888;2023-09-18T04:24:31;5.43;;;2.13;;
7707;SDS011;3896;48.758;8.888;2023-09-18T04:26:57;6.40;;;2.33;;
7707;SDS011;3896;48.758;8.888;2023-09-18T04:29:23;6.93;;;1.93;;
7707;SDS011;3896;48.758;8.888;2023-09-18T04:31:48;5.57;;;2.07;;
7707;SDS011;3896;48.758;8.888;2023-09-18T04:34:14;4.43;;;2.20;;
7707;SDS011;3896;48.758;8.888;2023-09-18T04:36:39;6.90;;;2.30;;
7707;SDS011;3896;48.758;8.888;2023-09-18T04:39:05;2.40;;;2.03;;
7707;SDS011;3896;48.758;8.888;2023-09-18T04:41:31;4.70;;;2.10;;
7707;SDS011;3896;48.758;8.888;2023-09-18T04:43:57;3.63;;;2.17;;
7707;SDS011;3896;48.758;8.888;2023-09-18T04:46:23;4.83;;;1.80;;
7707;SDS011;3896;48.758;8.888;2023-09-18T04:48:49;4.40;;;2.03;;
7707;SDS011;3896;48.758;8.888;2023-09-18T04:51:15;6.93;;;2.60;;
7707;SDS011;3896;48.758;8.888;2023-09-18T04:53:41;3.87;;;1.80;;
7707;SDS011;3896;48.758;8.888;2023-09-18T04:56:07;4.57;;;1.80;;
7707;SDS011;3896;48.758;8.888;2023-09-18T04:58:35;4.57;;;2.73;;
7707;SDS011;3896;48.758;8.888;2023-09-18T05:01:02;4.07;;;1.53;;
7707;SDS011;3896;48.758;8.888;2023-09-18T05:03:30;4.00;;;2.53;;
7707;SDS011;3896;48.758;8.888;2023-09-18T05:05:58;5.30;;;1.73;;
7707;SDS011;3896;48.758;8.888;2023-09-18T05:08:23;3.17;;;2.27;;
7707;SDS011;3896;48.758;8.888;2023-09-18T05:10:49;3.40;;;2.37;;
7707;SDS011;3896;48.758;8.888;2023-09-18T05:13:15;3.50;;;2.10;;
7707;SDS011;3896;48.758;8.888;2023-09-18T05:15:41;5.57;;;2.07;;
7707;SDS011;3896;48.758;8.888;2023-09-18T05:18:06;2.43;;;1.87;;
7707;SDS011;3896;48.758;8.888;2023-09-18T05:20:33;6.00;;;2.00;;
7707;SDS011;3896;48.758;8.888;2023-09-18T05:22:59;4.33;;;1.63;;
7707;SDS011;3896;48.758;8.888;2023-09-18T05:25:26;8.83;;;4.87;;
7707;SDS011;3896;48.758;8.888;2023-09-18T05:27:56;4.67;;;3.47;;
7707;SDS011;3896;48.758;8.888;2023-09-18T05:30:24;5.10;;;1.73;;
7707;SDS011;3896;48.758;8.888;2023-09-18T05:32:53;3.00;;;1.73;;
7707;SDS011;3896;48.758;8.888;2023-09-18T05:35:19;5.83;;;1.60;;
7707;SDS011;3896;48.758;8.888;2023-09-18T05:37:46;3.47;;;1.63;;
7707;SDS011;3896;48.758;8.888;2023-09-18T05:40:12;2.50;;;1.40;;
7707;SDS011;3896;48.758;8.888;2023-09-18T05:42:39;2.47;;;1.33;;
7707;SDS011;3896;48.758;8.888;2023-09-18T05:45:08;2.63;;;1.83;;
7707;SDS011;3896;48.758;8.888;2023-09-18T05:47:34;3.43;;;1.03;;
7707;SDS011;3896;48.758;8.888;2023-09-18T05:50:01;3.63;;;1.77;;
7707;SDS011;3896;48.758;8.888;2023-09-18T05:52:28;3.63;;;1.80;;
7707;SDS011;3896;48.758;8.888;2023-09-18T05:54:54;4.40;;;1.17;;
7707;SDS011;3896;48.758;8.888;2023-09-18T05:57:20;1.97;;;1.33;;
7707;SDS011;3896;48.758;8.888;2023-09-18T05:59:45;4.63;;;1.30;;
7707;SDS011;3896;48.758;8.888;2023-09-18T06:02:11;1.93;;;1.40;;
7707;SDS011;3896;48.758;8.888;2023-09-18T06:04:37;1.93;;;1.40;;
7707;SDS011;3896;48.758;8.888;2023-09-18T06:07:03;1.90;;;1.50;;
7707;SDS011;3896;48.758;8.888;2023-09-18T06:09:28;2.13;;;1.30;;
7707;SDS011;3896;48.758;8.888;2023-09-18T06:11:54;2.30;;;1.50;;
7707;SDS011;3896;48.758;8.888;2023-09-18T06:14:20;3.53;;;1.50;;
7707;SDS011;3896;48.758;8.888;2023-09-18T06:16:45;4.43;;;1.30;;
7707;SDS011;3896;48.758;8.888;2023-09-18T06:19:11;4.67;;;2.13;;
7707;SDS011;3896;48.758;8.888;2023-09-18T06:21:37;3.67;;;1.83;;
7707;SDS011;3896;48.758;8.888;2023-09-18T06:24:03;1.63;;;1.40;;
7707;SDS011;3896;48.758;8.888;2023-09-18T06:26:29;3.10;;;1.70;;
7707;SDS011;3896;48.758;8.888;2023-09-18T06:28:54;2.50;;;1.37;;
7707;SDS011;3896;48.758;8.888;2023-09-18T06:31:20;3.97;;;1.60;;
7707;SDS011;3896;48.758;8.888;2023-09-18T06:33:46;3.03;;;1.47;;
7707;SDS011;3896;48.758;8.888;2023-09-18T06:36:13;3.33;;;1.40;;
7707;SDS011;3896;48.758;8.888;2023-09-18T06:38:38;2.80;;;1.23;;
7707;SDS011;3896;48.758;8.888;2023-09-18T06:41:04;2.57;;;1.33;;
7707;SDS011;3896;48.758;8.888;2023-09-18T06:43:29;1.93;;;1.07;;
7707;SDS011;3896;48.758;8.888;2023-09-18T06:45:55;2.20;;;1.20;;
7707;SDS011;3896;48.758;8.888;2023-09-18T06:48:22;2.70;;;1.50;;
7707;SDS011;3896;48.758;8.888;2023-09-18T06:50:49;5.93;;;1.50;;
7707;SDS011;3896;48.758;8.888;2023-09-18T06:53:14;1.53;;;1.40;;
7707;SDS011;3896;48.758;8.888;2023-09-18T06:55:40;5.93;;;1.17;;
7707;SDS011;3896;48.758;8.888;2023-09-18T06:58:06;3.90;;;1.20;;
7707;SDS011;3896;48.758;8.888;2023-09-18T07:00:31;2.07;;;0.90;;
7707;SDS011;3896;48.758;8.888;2023-09-18T07:02:57;1.90;;;1.17;;
7707;SDS011;3896;48.758;8.888;2023-09-18T07:05:22;2.90;;;1.67;;
7707;SDS011;3896;48.758;8.888;2023-09-18T07:07:48;1.10;;;0.80;;
7707;SDS011;3896;48.758;8.888;2023-09-18T07:10:13;2.23;;;1.33;;
7707;SDS011;3896;48.758;8.888;2023-09-18T07:12:39;3.17;;;0.70;;
7707;SDS011;3896;48.758;8.888;2023-09-18T07:15:05;2.23;;;1.17;;
7707;SDS011;3896;48.758;8.888;2023-09-18T07:17:31;1.60;;;0.80;;
7707;SDS011;3896;48.758;8.888;2023-09-18T07:19:57;1.80;;;0.80;;
7707;SDS011;3896;48.758;8.888;2023-09-18T07:22:24;0.70;;;0.70;;
7707;SDS011;3896;48.758;8.888;2023-09-18T07:24:50;1.00;;;0.80;;
7707;SDS011;3896;48.758;8.888;2023-09-18T07:27:15;3.60;;;1.17;;
7707;SDS011;3896;48.758;8.888;2023-09-18T07:29:41;0.93;;;0.87;;
7707;SDS011;3896;48.758;8.888;2023-09-18T07:32:06;0.60;;;0.60;;
7707;SDS011;3896;48.758;8.888;2023-09-18T07:34:32;2.17;;;0.70;;
7707;SDS011;3896;48.758;8.888;2023-09-18T07:36:58;2.63;;;0.63;;
7707;SDS011;3896;48.758;8.888;2023-09-18T07:39:23;2.83;;;0.83;;
7707;SDS011;3896;48.758;8.888;2023-09-18T07:41:52;1.00;;;0.90;;
7707;SDS011;3896;48.758;8.888;2023-09-18T07:44:21;1.50;;;0.80;;
7707;SDS011;3896;48.758;8.888;2023-09-18T07:46:46;2.07;;;0.80;;
7707;SDS011;3896;48.758;8.888;2023-09-18T07:49:13;1.60;;;1.00;;
7707;SDS011;3896;48.758;8.888;2023-09-18T07:51:39;1.13;;;0.77;;
7707;SDS011;3896;48.758;8.888;2023-09-18T07:54:06;3.30;;;0.90;;
7707;SDS011;3896;48.758;8.888;2023-09-18T07:56:32;0.60;;;0.60;;
7707;SDS011;3896;48.758;8.888;2023-09-18T07:58:59;2.37;;;0.60;;
7707;SDS011;3896;48.758;8.888;2023-09-18T08:01:25;0.50;;;0.50;;
7707;SDS011;3896;48.758;8.888;2023-09-18T08:03:50;0.93;;;0.67;;
7707;SDS011;3896;48.758;8.888;2023-09-18T08:06:16;1.87;;;0.50;;
7707;SDS011;3896;48.758;8.888;2023-09-18T08:08:44;1.10;;;0.70;;
7707;SDS011;3896;48.758;8.888;2023-09-18T08:11:10;4.17;;;0.70;;
7707;SDS011;3896;48.758;8.888;2023-09-18T08:13:35;0.87;;;0.60;;
7707;SDS011;3896;48.758;8.888;2023-09-18T08:16:02;3.23;;;0.60;;
7707;SDS011;3896;48.758;8.888;2023-09-18T08:18:31;1.17;;;0.83;;
7707;SDS011;3896;48.758;8.888;2023-09-18T08:20:57;2.30;;;0.80;;
7707;SDS011;3896;48.758;8.888;2023-09-18T08:23:23;3.10;;;1.10;;
7707;SDS011;3896;48.758;8.888;2023-09-18T08:25:49;1.60;;;0.73;;
7707;SDS011;3896;48.758;8.888;2023-09-18T08:28:16;1.30;;;0.80;;
7707;SDS011;3896;48.758;8.888;2023-09-18T08:30:42;2.90;;;1.00;;
7707;SDS011;3896;48.758;8.888;2023-09-18T08:33:12;1.67;;;0.93;;
7707;SDS011;3896;48.758;8.888;2023-09-18T08:35:40;1.30;;;0.63;;
7707;SDS011;3896;48.758;8.888;2023-09-18T08:38:06;2.97;;;1.47;;
7707;SDS011;3896;48.758;8.888;2023-09-18T08:40:33;1.00;;;0.70;;
7707;SDS011;3896;48.758;8.888;2023-09-18T08:42:59;2.60;;;0.60;;
7707;SDS011;3896;48.758;8.888;2023-09-18T08:45:35;1.43;;;1.00;;
7707;SDS011;3896;48.758;8.888;2023-09-18T08:48:08;1.43;;;0.80;;
7707;SDS011;3896;48.758;8.888;2023-09-18T08:50:34;1.20;;;0.80;;
7707;SDS011;3896;48.758;8.888;2023-09-18T08:53:03;3.63;;;1.13;;
7707;SDS011;3896;48.758;8.888;2023-09-18T08:55:28;2.00;;;1.13;;
7707;SDS011;3896;48.758;8.888;2023-09-18T08:57:55;1.27;;;1.17;;
7707;SDS011;3896;48.758;8.888;2023-09-18T09:00:23;0.70;;;0.70;;
7707;SDS011;3896;48.758;8.888;2023-09-18T09:02:48;2.73;;;1.67;;
7707;SDS011;3896;48.758;8.888;2023-09-18T09:05:16;1.40;;;0.90;;
7707;SDS011;3896;48.758;8.888;2023-09-18T09:07:41;1.50;;;0.70;;
7707;SDS011;3896;48.758;8.888;2023-09-18T09:10:07;0.90;;;0.70;;
7707;SDS011;3896;48.758;8.888;2023-09-18T09:15:16;2.03;;;0.90;;
7707;SDS011;3896;48.758;8.888;2023-09-18T09:17:42;3.90;;;1.43;;
7707;SDS011;3896;48.758;8.888;2023-09-18T09:20:10;2.30;;;0.97;;
7707;SDS011;3896;48.758;8.888;2023-09-18T09:22:39;1.30;;;0.80;;
7707;SDS011;3896;48.758;8.888;2023-09-18T09:25:27;1.00;;;0.93;;
7707;SDS011;3896;48.758;8.888;2023-09-18T09:27:53;2.73;;;0.80;;
7707;SDS011;3896;48.758;8.888;2023-09-18T09:30:23;2.93;;;1.00;;
7707;SDS011;3896;48.758;8.888;2023-09-18T09:32:51;1.83;;;0.80;;
7707;SDS011;3896;48.758;8.888;2023-09-18T09:35:24;3.30;;;1.00;;
7707;SDS011;3896;48.758;8.888;2023-09-18T09:37:56;1.60;;;0.70;;
7707;SDS011;3896;48.758;8.888;2023-09-18T09:40:26;0.90;;;0.70;;
7707;SDS011;3896;48.758;8.888;2023-09-18T09:42:54;2.97;;;0.97;;
7707;SDS011;3896;48.758;8.888;2023-09-18T09:45:25;0.87;;;0.70;;
7707;SDS011;3896;48.758;8.888;2023-09-18T09:47:56;0.70;;;0.70;;
7707;SDS011;3896;48.758;8.888;2023-09-18T09:50:22;2.27;;;0.97;;
7707;SDS011;3896;48.758;8.888;2023-09-18T09:52:50;1.57;;;0.97;;
7707;SDS011;3896;48.758;8.888;2023-09-18T09:57:57;1.43;;;1.13;;
7707;SDS011;3896;48.758;8.888;2023-09-18T10:00:29;2.73;;;0.93;;
7707;SDS011;3896;48.758;8.888;2023-09-18T10:03:18;1.10;;;0.80;;
7707;SDS011;3896;48.758;8.888;2023-09-18T10:05:45;0.90;;;0.77;;
7707;SDS011;3896;48.758;8.888;2023-09-18T10:08:22;1.50;;;0.93;;
7707;SDS011;3896;48.758;8.888;2023-09-18T10:10:54;1.10;;;0.80;;
7707;SDS011;3896;48.758;8.888;2023-09-18T10:13:29;2.03;;;1.07;;
7707;SDS011;3896;48.758;8.888;2023-09-18T10:16:05;1.63;;;0.93;;
7707;SDS011;3896;48.758;8.888;2023-09-18T10:26:29;2.30;;;1.10;;
7707;SDS011;3896;48.758;8.888;2023-09-18T10:28:58;3.07;;;0.70;;
7707;SDS011;3896;48.758;8.888;2023-09-18T10:31:28;3.47;;;0.97;;
7707;SDS011;3896;48.758;8.888;2023-09-18T10:33:54;1.13;;;1.03;;
7707;SDS011;3896;48.758;8.888;2023-09-18T10:36:22;1.23;;;0.60;;
7707;SDS011;3896;48.758;8.888;2023-09-18T10:38:49;2.03;;;0.90;;
7707;SDS011;3896;48.758;8.888;2023-09-18T10:41:17;1.30;;;1.20;;
7707;SDS011;3896;48.758;8.888;2023-09-18T10:43:46;1.40;;;1.10;;
7707;SDS011;3896;48.758;8.888;2023-09-18T10:46:15;3.27;;;1.33;;
7707;SDS011;3896;48.758;8.888;2023-09-18T10:48:41;2.40;;;0.90;;
7707;SDS011;3896;48.758;8.888;2023-09-18T10:51:08;1.17;;;1.07;;
7707;SDS011;3896;48.758;8.888;2023-09-18T10:53:34;1.67;;;1.13;;
7707;SDS011;3896;48.758;8.888;2023-09-18T10:56:03;2.20;;;1.10;;
7707;SDS011;3896;48.758;8.888;2023-09-18T10:58:29;2.90;;;1.07;;
7707;SDS011;3896;48.758;8.888;2023-09-18T11:00:55;2.13;;;1.03;;
7707;SDS011;3896;48.758;8.888;2023-09-18T11:03:22;1.10;;;1.03;;
7707;SDS011;3896;48.758;8.888;2023-09-18T11:05:48;3.20;;;1.23;;
7707;SDS011;3896;48.758;8.888;2023-09-18T11:08:32;1.27;;;1.10;;
7707;SDS011;3896;48.758;8.888;2023-09-18T11:11:09;1.30;;;1.00;;
7707;SDS011;3896;48.758;8.888;2023-09-18T11:13:41;1.10;;;1.00;;
7707;SDS011;3896;48.758;8.888;2023-09-18T11:16:13;1.90;;;0.90;;
7707;SDS011;3896;48.758;8.888;2023-09-18T11:18:48;2.40;;;1.13;;
7707;SDS011;3896;48.758;8.888;2023-09-18T11:21:17;1.53;;;1.10;;
7707;SDS011;3896;48.758;8.888;2023-09-18T11:23:48;2.67;;;1.17;;
7707;SDS011;3896;48.758;8.888;2023-09-18T11:26:30;4.23;;;2.13;;
7707;SDS011;3896;48.758;8.888;2023-09-18T11:29:03;2.07;;;1.00;;
7707;SDS011;3896;48.758;8.888;2023-09-18T11:34:29;1.67;;;0.87;;
7707;SDS011;3896;48.758;8.888;2023-09-18T11:37:00;2.83;;;1.00;;
7707;SDS011;3896;48.758;8.888;2023-09-18T11:39:47;1.63;;;0.90;;
7707;SDS011;3896;48.758;8.888;2023-09-18T11:42:14;2.57;;;1.40;;
7707;SDS011;3896;48.758;8.888;2023-09-18T11:44:44;2.20;;;1.00;;
7707;SDS011;3896;48.758;8.888;2023-09-18T11:47:14;1.53;;;0.90;;
7707;SDS011;3896;48.758;8.888;2023-09-18T11:49:57;0.87;;;0.87;;
7707;SDS011;3896;48.758;8.888;2023-09-18T11:52:24;1.57;;;1.03;;
7707;SDS011;3896;48.758;8.888;2023-09-18T11:54:51;1.90;;;1.10;;
7707;SDS011;3896;48.758;8.888;2023-09-18T11:57:18;1.73;;;1.10;;
7707;SDS011;3896;48.758;8.888;2023-09-18T11:59:47;1.53;;;0.90;;
7707;SDS011;3896;48.758;8.888;2023-09-18T12:02:13;0.97;;;0.87;;
7707;SDS011;3896;48.758;8.888;2023-09-18T12:04:52;1.93;;;1.10;;
7707;SDS011;3896;48.758;8.888;2023-09-18T12:07:19;2.47;;;1.50;;
7707;SDS011;3896;48.758;8.888;2023-09-18T12:09:44;2.00;;;0.90;;
7707;SDS011;3896;48.758;8.888;2023-09-18T12:12:10;1.33;;;0.90;;
7707;SDS011;3896;48.758;8.888;2023-09-18T12:14:39;3.40;;;0.90;;
7707;SDS011;3896;48.758;8.888;2023-09-18T12:17:06;0.87;;;0.83;;
7707;SDS011;3896;48.758;8.888;2023-09-18T12:19:33;0.63;;;0.63;;
7707;SDS011;3896;48.758;8.888;2023-09-18T12:22:02;1.90;;;1.00;;
7707;SDS011;3896;48.758;8.888;2023-09-18T12:24:29;1.70;;;1.00;;
7707;SDS011;3896;48.758;8.888;2023-09-18T12:26:54;1.77;;;1.00;;
7707;SDS011;3896;48.758;8.888;2023-09-18T12:29:22;2.13;;;1.10;;
7707;SDS011;3896;48.758;8.888;2023-09-18T12:31:48;0.83;;;0.80;;
7707;SDS011;3896;48.758;8.888;2023-09-18T12:34:18;0.93;;;0.80;;
7707;SDS011;3896;48.758;8.888;2023-09-18T12:36:48;1.20;;;1.10;;
7707;SDS011;3896;48.758;8.888;2023-09-18T12:39:15;1.10;;;0.93;;
7707;SDS011;3896;48.758;8.888;2023-09-18T12:41:45;2.50;;;1.07;;
7707;SDS011;3896;48.758;8.888;2023-09-18T12:44:11;0.60;;;0.60;;
7707;SDS011;3896;48.758;8.888;2023-09-18T12:46:39;2.27;;;0.90;;
7707;SDS011;3896;48.758;8.888;2023-09-18T12:49:18;1.43;;;0.73;;
7707;SDS011;3896;48.758;8.888;2023-09-18T12:51:53;0.80;;;0.63;;
7707;SDS011;3896;48.758;8.888;2023-09-18T12:54:42;0.90;;;0.90;;
7707;SDS011;3896;48.758;8.888;2023-09-18T12:57:10;0.77;;;0.77;;
7707;SDS011;3896;48.758;8.888;2023-09-18T12:59:40;0.60;;;0.37;;
7707;SDS011;3896;48.758;8.888;2023-09-18T13:02:06;2.00;;;1.03;;
7707;SDS011;3896;48.758;8.888;2023-09-18T13:04:33;0.70;;;0.70;;
7707;SDS011;3896;48.758;8.888;2023-09-18T13:07:11;1.63;;;0.80;;
7707;SDS011;3896;48.758;8.888;2023-09-18T13:09:38;1.33;;;1.00;;
7707;SDS011;3896;48.758;8.888;2023-09-18T13:12:07;1.13;;;0.90;;
7707;SDS011;3896;48.758;8.888;2023-09-18T13:15:08;1.20;;;1.10;;
7707;SDS011;3896;48.758;8.888;2023-09-18T13:17:52;0.67;;;0.60;;
7707;SDS011;3896;48.758;8.888;2023-09-18T13:20:18;0.80;;;0.80;;
7707;SDS011;3896;48.758;8.888;2023-09-18T13:22:50;2.07;;;1.03;;
7707;SDS011;3896;48.758;8.888;2023-09-18T13:25:20;0.97;;;0.90;;
7707;SDS011;3896;48.758;8.888;2023-09-18T13:27:50;0.83;;;0.83;;
7707;SDS011;3896;48.758;8.888;2023-09-18T13:30:16;1.20;;;0.90;;
7707;SDS011;3896;48.758;8.888;2023-09-18T13:32:43;1.40;;;0.77;;
7707;SDS011;3896;48.758;8.888;2023-09-18T13:35:09;1.40;;;0.90;;
7707;SDS011;3896;48.758;8.888;2023-09-18T13:37:37;0.83;;;0.83;;
7707;SDS011;3896;48.758;8.888;2023-09-18T13:40:04;1.10;;;1.00;;
7707;SDS011;3896;48.758;8.888;2023-09-18T13:42:32;3.60;;;1.00;;
7707;SDS011;3896;48.758;8.888;2023-09-18T13:44:58;1.10;;;1.00;;
7707;SDS011;3896;48.758;8.888;2023-09-18T13:47:25;1.80;;;0.97;;
7707;SDS011;3896;48.758;8.888;2023-09-18T13:49:52;0.87;;;0.77;;
7707;SDS011;3896;48.758;8.888;2023-09-18T13:52:18;2.93;;;1.37;;
7707;SDS011;3896;48.758;8.888;2023-09-18T13:54:44;0.93;;;0.77;;
7707;SDS011;3896;48.758;8.888;2023-09-18T13:57:16;1.07;;;0.80;;
7707;SDS011;3896;48.758;8.888;2023-09-18T13:59:42;1.03;;;0.90;;
7707;SDS011;3896;48.758;8.888;2023-09-18T14:02:08;2.43;;;0.93;;
7707;SDS011;3896;48.758;8.888;2023-09-18T14:04:33;0.77;;;0.77;;
7707;SDS011;3896;48.758;8.888;2023-09-18T14:06:59;2.47;;;0.90;;
7707;SDS011;3896;48.758;8.888;2023-09-18T14:09:24;1.97;;;1.13;;
7707;SDS011;3896;48.758;8.888;2023-09-18T14:11:50;1.07;;;0.97;;
7707;SDS011;3896;48.758;8.888;2023-09-18T14:14:15;1.60;;;1.00;;
7707;SDS011;3896;48.758;8.888;2023-09-18T14:16:41;2.30;;;0.87;;
7707;SDS011;3896;48.758;8.888;2023-09-18T14:19:06;1.13;;;0.90;;
7707;SDS011;3896;48.758;8.888;2023-09-18T14:21:36;1.93;;;1.23;;
7707;SDS011;3896;48.758;8.888;2023-09-18T14:24:04;0.80;;;0.77;;
7707;SDS011;3896;48.758;8.888;2023-09-18T14:26:30;1.27;;;1.17;;
7707;SDS011;3896;48.758;8.888;2023-09-18T14:28:55;1.33;;;1.00;;
7707;SDS011;3896;48.758;8.888;2023-09-18T14:31:21;1.90;;;1.00;;
7707;SDS011;3896;48.758;8.888;2023-09-18T14:33:46;2.13;;;0.97;;
7707;SDS011;3896;48.758;8.888;2023-09-18T14:36:12;1.70;;;0.83;;
7707;SDS011;3896;48.758;8.888;2023-09-18T14:38:37;0.70;;;0.70;;
7707;SDS011;3896;48.758;8.888;2023-09-18T14:41:05;1.80;;;1.00;;
7707;SDS011;3896;48.758;8.888;2023-09-18T14:43:32;1.70;;;0.97;;
7707;SDS011;3896;48.758;8.888;2023-09-18T14:45:57;0.97;;;0.80;;
7707;SDS011;3896;48.758;8.888;2023-09-18T14:48:23;1.07;;;0.83;;
7707;SDS011;3896;48.758;8.888;2023-09-18T14:50:55;1.07;;;0.90;;
7707;SDS011;3896;48.758;8.888;2023-09-18T14:53:22;1.20;;;1.10;;
7707;SDS011;3896;48.758;8.888;2023-09-18T14:55:48;1.33;;;1.00;;
7707;SDS011;3896;48.758;8.888;2023-09-18T14:58:13;1.10;;;0.67;;
7707;SDS011;3896;48.758;8.888;2023-09-18T15:00:39;2.30;;;0.90;;
7707;SDS011;3896;48.758;8.888;2023-09-18T15:03:05;1.40;;;0.73;;
7707;SDS011;3896;48.758;8.888;2023-09-18T15:05:30;0.70;;;0.70;;
7707;SDS011;3896;48.758;8.888;2023-09-18T15:07:56;0.90;;;0.90;;
7707;SDS011;3896;48.758;8.888;2023-09-18T15:10:21;1.03;;;0.93;;
7707;SDS011;3896;48.758;8.888;2023-09-18T15:12:47;0.97;;;0.83;;
7707;SDS011;3896;48.758;8.888;2023-09-18T15:15:13;0.70;;;0.70;;
7707;SDS011;3896;48.758;8.888;2023-09-18T15:17:38;1.50;;;0.80;;
7707;SDS011;3896;48.758;8.888;2023-09-18T15:20:05;1.17;;;0.80;;
7707;SDS011;3896;48.758;8.888;2023-09-18T15:22:31;0.90;;;0.90;;
7707;SDS011;3896;48.758;8.888;2023-09-18T15:24:56;1.50;;;0.60;;
7707;SDS011;3896;48.758;8.888;2023-09-18T15:27:22;1.33;;;0.70;;
7707;SDS011;3896;48.758;8.888;2023-09-18T15:29:48;0.70;;;0.70;;
7707;SDS011;3896;48.758;8.888;2023-09-18T15:32:14;0.90;;;0.87;;
7707;SDS011;3896;48.758;8.888;2023-09-18T15:34:39;1.87;;;0.80;;
7707;SDS011;3896;48.758;8.888;2023-09-18T15:37:05;1.80;;;0.87;;
7707;SDS011;3896;48.758;8.888;2023-09-18T15:39:31;2.00;;;1.03;;
7707;SDS011;3896;48.758;8.888;2023-09-18T15:41:58;2.80;;;0.93;;
7707;SDS011;3896;48.758;8.888;2023-09-18T15:44:24;0.73;;;0.73;;
7707;SDS011;3896;48.758;8.888;2023-09-18T15:46:49;1.10;;;0.70;;
7707;SDS011;3896;48.758;8.888;2023-09-18T15:49:15;1.90;;;0.83;;